sensor_id;sensor_type;location;lat;lon;timestamp;P1;durP1;ratioP1;P2;durP2;ratioP2
17844;SDS011;9047;53.486;10.218;2022-09-25T00:00:39;77.97;;;30.50;;
17844;SDS011;9047;53.486;10.218;2022-09-25T00:03:21;100.82;;;33.85;;
17844;SDS011;9047;53.486;10.218;2022-09-25T00:05:50;96.28;;;32.40;;
17844;SDS011;9047;53.486;10.218;2022-09-25T00:08:17;111.22;;;32.80;;
17844;SDS011;9047;53.486;10.218;2022-09-25T00:10:46;101.28;;;31.65;;
17844;SDS011;9047;53.486;10.218;2022-09-25T00:13:20;94.22;;;31.48;;
17844;SDS011;9047;53.486;10.218;2022-09-25T00:15:48;77.75;;;29.73;;
17844;SDS011;9047;53.486;10.218;2022-09-25T00:18:19;90.30;;;30.45;;
17844;SDS011;9047;53.486;10.218;2022-09-25T00:21:08;105.22;;;32.17;;
17844;SDS011;9047;53.486;10.218;2022-09-25T00:23:36;98.70;;;29.73;;
17844;SDS011;9047;53.486;10.218;2022-09-25T00:26:04;87.55;;;29.13;;
17844;SDS011;9047;53.486;10.218;2022-09-25T00:28:32;81.80;;;29.58;;
17844;SDS011;9047;53.486;10.218;2022-09-25T00:31:00;93.45;;;29.70;;
17844;SDS011;9047;53.486;10.218;2022-09-25T00:33:29;91.35;;;31.15;;
17844;SDS011;9047;53.486;10.218;2022-09-25T00:35:59;99.20;;;31.65;;
17844;SDS011;9047;53.486;10.218;2022-09-25T00:38:34;112.80;;;32.17;;
17844;SDS011;9047;53.486;10.218;2022-09-25T00:41:02;98.57;;;28.00;;
17844;SDS011;9047;53.486;10.218;2022-09-25T00:43:34;90.82;;;29.55;;
17844;SDS011;9047;53.486;10.218;2022-09-25T00:46:04;110.30;;;31.98;;
17844;SDS011;9047;53.486;10.218;2022-09-25T00:48:38;100.13;;;29.00;;
17844;SDS011;9047;53.486;10.218;2022-09-25T00:51:12;104.85;;;30.52;;
17844;SDS011;9047;53.486;10.218;2022-09-25T00:53:41;123.32;;;33.33;;
17844;SDS011;9047;53.486;10.218;2022-09-25T00:56:08;105.95;;;29.67;;
17844;SDS011;9047;53.486;10.218;2022-09-25T00:58:38;77.38;;;27.27;;
17844;SDS011;9047;53.486;10.218;2022-09-25T01:01:06;116.18;;;32.47;;
17844;SDS011;9047;53.486;10.218;2022-09-25T01:03:34;104.28;;;30.95;;
17844;SDS011;9047;53.486;10.218;2022-09-25T01:06:03;112.03;;;31.02;;
17844;SDS011;9047;53.486;10.218;2022-09-25T01:08:30;102.68;;;30.15;;
17844;SDS011;9047;53.486;10.218;2022-09-25T01:10:59;88.22;;;28.92;;
17844;SDS011;9047;53.486;10.218;2022-09-25T01:13:26;96.20;;;29.27;;
17844;SDS011;9047;53.486;10.218;2022-09-25T01:15:57;82.72;;;27.45;;
17844;SDS011;9047;53.486;10.218;2022-09-25T01:18:33;86.90;;;28.75;;
17844;SDS011;9047;53.486;10.218;2022-09-25T01:21:15;99.32;;;28.85;;
17844;SDS011;9047;53.486;10.218;2022-09-25T01:29:59;75.13;;;25.20;;
17844;SDS011;9047;53.486;10.218;2022-09-25T01:32:32;99.32;;;28.15;;
17844;SDS011;9047;53.486;10.218;2022-09-25T01:35:05;82.97;;;27.83;;
17844;SDS011;9047;53.486;10.218;2022-09-25T01:37:39;102.47;;;28.85;;
17844;SDS011;9047;53.486;10.218;2022-09-25T01:40:10;96.85;;;26.42;;
17844;SDS011;9047;53.486;10.218;2022-09-25T01:42:43;95.97;;;26.25;;
17844;SDS011;9047;53.486;10.218;2022-09-25T01:45:16;104.28;;;29.50;;
17844;SDS011;9047;53.486;10.218;2022-09-25T01:47:49;100.40;;;31.50;;
17844;SDS011;9047;53.486;10.218;2022-09-25T01:50:19;98.55;;;28.45;;
17844;SDS011;9047;53.486;10.218;2022-09-25T01:52:52;96.68;;;29.35;;
17844;SDS011;9047;53.486;10.218;2022-09-25T01:55:24;85.15;;;27.70;;
17844;SDS011;9047;53.486;10.218;2022-09-25T01:57:55;60.63;;;24.98;;
17844;SDS011;9047;53.486;10.218;2022-09-25T02:00:30;80.38;;;27.10;;
17844;SDS011;9047;53.486;10.218;2022-09-25T02:03:04;70.45;;;26.60;;
17844;SDS011;9047;53.486;10.218;2022-09-25T02:05:37;87.00;;;26.50;;
17844;SDS011;9047;53.486;10.218;2022-09-25T02:08:09;69.97;;;25.27;;
17844;SDS011;9047;53.486;10.218;2022-09-25T02:10:38;86.28;;;27.08;;
17844;SDS011;9047;53.486;10.218;2022-09-25T02:13:12;85.55;;;27.30;;
17844;SDS011;9047;53.486;10.218;2022-09-25T02:15:43;76.38;;;25.95;;
17844;SDS011;9047;53.486;10.218;2022-09-25T02:18:15;62.33;;;23.73;;
17844;SDS011;9047;53.486;10.218;2022-09-25T02:21:04;81.03;;;26.92;;
17844;SDS011;9047;53.486;10.218;2022-09-25T02:23:40;77.28;;;26.98;;
17844;SDS011;9047;53.486;10.218;2022-09-25T02:26:15;71.85;;;25.20;;
17844;SDS011;9047;53.486;10.218;2022-09-25T02:28:47;67.85;;;25.63;;
17844;SDS011;9047;53.486;10.218;2022-09-25T02:31:17;58.00;;;23.75;;
17844;SDS011;9047;53.486;10.218;2022-09-25T02:33:44;56.47;;;22.92;;
17844;SDS011;9047;53.486;10.218;2022-09-25T02:36:15;67.75;;;26.80;;
17844;SDS011;9047;53.486;10.218;2022-09-25T02:38:43;63.63;;;25.42;;
17844;SDS011;9047;53.486;10.218;2022-09-25T02:41:11;66.78;;;26.52;;
17844;SDS011;9047;53.486;10.218;2022-09-25T02:43:50;62.45;;;26.23;;
17844;SDS011;9047;53.486;10.218;2022-09-25T02:46:26;67.43;;;26.67;;
17844;SDS011;9047;53.486;10.218;2022-09-25T02:49:03;72.28;;;27.83;;
17844;SDS011;9047;53.486;10.218;2022-09-25T02:51:39;61.63;;;24.58;;
17844;SDS011;9047;53.486;10.218;2022-09-25T02:54:18;62.67;;;25.17;;
17844;SDS011;9047;53.486;10.218;2022-09-25T02:56:50;67.30;;;25.55;;
17844;SDS011;9047;53.486;10.218;2022-09-25T02:59:22;64.70;;;25.10;;
17844;SDS011;9047;53.486;10.218;2022-09-25T03:01:55;54.05;;;22.55;;
17844;SDS011;9047;53.486;10.218;2022-09-25T03:04:23;62.72;;;25.05;;
17844;SDS011;9047;53.486;10.218;2022-09-25T03:06:53;56.88;;;24.13;;
17844;SDS011;9047;53.486;10.218;2022-09-25T03:09:21;57.83;;;23.48;;
17844;SDS011;9047;53.486;10.218;2022-09-25T03:11:50;53.17;;;23.17;;
17844;SDS011;9047;53.486;10.218;2022-09-25T03:14:17;54.30;;;23.65;;
17844;SDS011;9047;53.486;10.218;2022-09-25T03:16:46;54.63;;;24.20;;
17844;SDS011;9047;53.486;10.218;2022-09-25T03:19:17;51.75;;;23.10;;
17844;SDS011;9047;53.486;10.218;2022-09-25T03:21:44;52.88;;;22.52;;
17844;SDS011;9047;53.486;10.218;2022-09-25T03:24:15;48.53;;;22.42;;
17844;SDS011;9047;53.486;10.218;2022-09-25T03:26:42;48.95;;;22.98;;
17844;SDS011;9047;53.486;10.218;2022-09-25T03:29:10;45.45;;;21.13;;
17844;SDS011;9047;53.486;10.218;2022-09-25T03:31:37;54.03;;;24.27;;
17844;SDS011;9047;53.486;10.218;2022-09-25T03:34:06;44.35;;;21.20;;
17844;SDS011;9047;53.486;10.218;2022-09-25T03:36:34;49.78;;;23.75;;
17844;SDS011;9047;53.486;10.218;2022-09-25T03:39:02;46.00;;;21.48;;
17844;SDS011;9047;53.486;10.218;2022-09-25T03:41:30;51.85;;;22.23;;
17844;SDS011;9047;53.486;10.218;2022-09-25T03:43:59;50.30;;;23.63;;
17844;SDS011;9047;53.486;10.218;2022-09-25T03:46:28;51.55;;;23.15;;
17844;SDS011;9047;53.486;10.218;2022-09-25T03:48:56;50.80;;;23.92;;
17844;SDS011;9047;53.486;10.218;2022-09-25T03:51:25;46.60;;;21.40;;
17844;SDS011;9047;53.486;10.218;2022-09-25T03:53:54;53.33;;;22.80;;
17844;SDS011;9047;53.486;10.218;2022-09-25T03:56:23;51.88;;;22.90;;
17844;SDS011;9047;53.486;10.218;2022-09-25T03:58:50;45.92;;;21.42;;
17844;SDS011;9047;53.486;10.218;2022-09-25T04:01:19;48.33;;;21.67;;
17844;SDS011;9047;53.486;10.218;2022-09-25T04:03:46;46.40;;;20.65;;
17844;SDS011;9047;53.486;10.218;2022-09-25T04:06:14;50.42;;;22.35;;
17844;SDS011;9047;53.486;10.218;2022-09-25T04:08:42;45.30;;;20.55;;
17844;SDS011;9047;53.486;10.218;2022-09-25T04:11:12;44.65;;;20.40;;
17844;SDS011;9047;53.486;10.218;2022-09-25T04:13:39;46.45;;;21.02;;
17844;SDS011;9047;53.486;10.218;2022-09-25T04:16:08;45.90;;;21.77;;
17844;SDS011;9047;53.486;10.218;2022-09-25T04:18:36;48.47;;;21.40;;
17844;SDS011;9047;53.486;10.218;2022-09-25T04:21:06;51.15;;;21.15;;
17844;SDS011;9047;53.486;10.218;2022-09-25T04:23:35;50.55;;;21.38;;
17844;SDS011;9047;53.486;10.218;2022-09-25T04:26:03;47.10;;;19.98;;
17844;SDS011;9047;53.486;10.218;2022-09-25T04:28:31;47.28;;;20.90;;
17844;SDS011;9047;53.486;10.218;2022-09-25T04:31:00;49.53;;;21.10;;
17844;SDS011;9047;53.486;10.218;2022-09-25T04:33:27;49.08;;;21.00;;
17844;SDS011;9047;53.486;10.218;2022-09-25T04:36:12;44.28;;;18.75;;
17844;SDS011;9047;53.486;10.218;2022-09-25T04:38:39;46.65;;;18.25;;
17844;SDS011;9047;53.486;10.218;2022-09-25T04:41:06;53.03;;;21.00;;
17844;SDS011;9047;53.486;10.218;2022-09-25T04:43:34;50.50;;;20.58;;
17844;SDS011;9047;53.486;10.218;2022-09-25T04:46:02;53.67;;;20.63;;
17844;SDS011;9047;53.486;10.218;2022-09-25T04:48:30;51.83;;;20.67;;
17844;SDS011;9047;53.486;10.218;2022-09-25T04:50:58;47.97;;;20.23;;
17844;SDS011;9047;53.486;10.218;2022-09-25T04:53:25;52.10;;;20.98;;
17844;SDS011;9047;53.486;10.218;2022-09-25T04:55:53;52.17;;;20.83;;
17844;SDS011;9047;53.486;10.218;2022-09-25T04:58:25;51.28;;;20.05;;
17844;SDS011;9047;53.486;10.218;2022-09-25T05:00:53;54.88;;;21.27;;
17844;SDS011;9047;53.486;10.218;2022-09-25T05:03:20;52.70;;;21.35;;
17844;SDS011;9047;53.486;10.218;2022-09-25T05:05:48;45.83;;;19.50;;
17844;SDS011;9047;53.486;10.218;2022-09-25T05:08:15;47.03;;;19.70;;
17844;SDS011;9047;53.486;10.218;2022-09-25T05:10:42;46.38;;;19.80;;
17844;SDS011;9047;53.486;10.218;2022-09-25T05:13:09;50.95;;;21.13;;
17844;SDS011;9047;53.486;10.218;2022-09-25T05:15:37;51.63;;;20.33;;
17844;SDS011;9047;53.486;10.218;2022-09-25T05:18:06;51.33;;;20.90;;
17844;SDS011;9047;53.486;10.218;2022-09-25T05:20:42;50.50;;;20.88;;
17844;SDS011;9047;53.486;10.218;2022-09-25T05:23:10;50.67;;;20.00;;
17844;SDS011;9047;53.486;10.218;2022-09-25T05:25:37;49.80;;;20.33;;
17844;SDS011;9047;53.486;10.218;2022-09-25T05:28:04;49.53;;;20.75;;
17844;SDS011;9047;53.486;10.218;2022-09-25T05:30:31;48.45;;;20.48;;
17844;SDS011;9047;53.486;10.218;2022-09-25T05:32:59;50.25;;;20.95;;
17844;SDS011;9047;53.486;10.218;2022-09-25T05:35:28;48.08;;;19.90;;
17844;SDS011;9047;53.486;10.218;2022-09-25T05:37:57;49.33;;;20.85;;
17844;SDS011;9047;53.486;10.218;2022-09-25T05:40:24;50.45;;;21.20;;
17844;SDS011;9047;53.486;10.218;2022-09-25T05:42:51;51.35;;;22.00;;
17844;SDS011;9047;53.486;10.218;2022-09-25T05:45:19;54.88;;;21.30;;
17844;SDS011;9047;53.486;10.218;2022-09-25T05:47:48;55.75;;;22.10;;
17844;SDS011;9047;53.486;10.218;2022-09-25T05:50:27;69.88;;;24.67;;
17844;SDS011;9047;53.486;10.218;2022-09-25T05:52:56;76.38;;;23.02;;
17844;SDS011;9047;53.486;10.218;2022-09-25T05:55:24;75.70;;;23.27;;
17844;SDS011;9047;53.486;10.218;2022-09-25T05:57:51;72.05;;;24.05;;
17844;SDS011;9047;53.486;10.218;2022-09-25T06:00:18;89.03;;;25.80;;
17844;SDS011;9047;53.486;10.218;2022-09-25T06:02:49;60.00;;;23.27;;
17844;SDS011;9047;53.486;10.218;2022-09-25T06:05:17;59.67;;;24.27;;
17844;SDS011;9047;53.486;10.218;2022-09-25T06:07:52;107.13;;;28.88;;
17844;SDS011;9047;53.486;10.218;2022-09-25T06:10:19;64.45;;;27.55;;
17844;SDS011;9047;53.486;10.218;2022-09-25T06:12:46;56.72;;;24.88;;
17844;SDS011;9047;53.486;10.218;2022-09-25T06:15:14;72.13;;;24.35;;
17844;SDS011;9047;53.486;10.218;2022-09-25T06:17:41;73.07;;;24.70;;
17844;SDS011;9047;53.486;10.218;2022-09-25T06:20:08;67.05;;;25.45;;
17844;SDS011;9047;53.486;10.218;2022-09-25T06:22:36;92.25;;;27.17;;
17844;SDS011;9047;53.486;10.218;2022-09-25T06:25:06;68.50;;;23.95;;
17844;SDS011;9047;53.486;10.218;2022-09-25T06:27:34;55.65;;;24.77;;
17844;SDS011;9047;53.486;10.218;2022-09-25T06:30:01;73.38;;;25.63;;
17844;SDS011;9047;53.486;10.218;2022-09-25T06:32:30;90.78;;;27.75;;
17844;SDS011;9047;53.486;10.218;2022-09-25T06:34:57;75.50;;;27.15;;
17844;SDS011;9047;53.486;10.218;2022-09-25T06:37:24;76.57;;;27.23;;
17844;SDS011;9047;53.486;10.218;2022-09-25T06:39:51;77.65;;;27.75;;
17844;SDS011;9047;53.486;10.218;2022-09-25T06:42:20;59.08;;;24.00;;
17844;SDS011;9047;53.486;10.218;2022-09-25T06:44:48;84.20;;;28.63;;
17844;SDS011;9047;53.486;10.218;2022-09-25T06:47:15;53.25;;;24.83;;
17844;SDS011;9047;53.486;10.218;2022-09-25T06:49:43;55.55;;;25.98;;
17844;SDS011;9047;53.486;10.218;2022-09-25T06:52:10;66.68;;;26.35;;
17844;SDS011;9047;53.486;10.218;2022-09-25T06:54:37;50.47;;;24.65;;
17844;SDS011;9047;53.486;10.218;2022-09-25T06:57:04;50.35;;;24.52;;
17844;SDS011;9047;53.486;10.218;2022-09-25T06:59:34;61.80;;;26.67;;
17844;SDS011;9047;53.486;10.218;2022-09-25T07:02:01;61.13;;;26.23;;
17844;SDS011;9047;53.486;10.218;2022-09-25T07:04:48;57.47;;;25.25;;
17844;SDS011;9047;53.486;10.218;2022-09-25T07:07:15;61.90;;;26.05;;
17844;SDS011;9047;53.486;10.218;2022-09-25T07:09:46;55.97;;;24.40;;
17844;SDS011;9047;53.486;10.218;2022-09-25T07:12:13;60.00;;;24.70;;
17844;SDS011;9047;53.486;10.218;2022-09-25T07:14:43;63.03;;;24.80;;
17844;SDS011;9047;53.486;10.218;2022-09-25T07:17:13;49.80;;;22.67;;
17844;SDS011;9047;53.486;10.218;2022-09-25T07:19:40;62.83;;;24.48;;
17844;SDS011;9047;53.486;10.218;2022-09-25T07:22:08;49.83;;;23.58;;
17844;SDS011;9047;53.486;10.218;2022-09-25T07:24:36;51.47;;;23.13;;
17844;SDS011;9047;53.486;10.218;2022-09-25T07:27:04;46.00;;;23.02;;
17844;SDS011;9047;53.486;10.218;2022-09-25T07:29:31;52.15;;;24.23;;
17844;SDS011;9047;53.486;10.218;2022-09-25T07:32:01;44.17;;;21.85;;
17844;SDS011;9047;53.486;10.218;2022-09-25T07:34:28;53.30;;;23.98;;
17844;SDS011;9047;53.486;10.218;2022-09-25T07:36:56;42.90;;;21.77;;
17844;SDS011;9047;53.486;10.218;2022-09-25T07:39:22;38.15;;;20.85;;
17844;SDS011;9047;53.486;10.218;2022-09-25T07:41:52;44.67;;;22.10;;
17844;SDS011;9047;53.486;10.218;2022-09-25T07:44:19;49.38;;;23.85;;
17844;SDS011;9047;53.486;10.218;2022-09-25T07:46:46;51.70;;;23.95;;
17844;SDS011;9047;53.486;10.218;2022-09-25T07:49:15;46.17;;;23.10;;
17844;SDS011;9047;53.486;10.218;2022-09-25T07:51:42;42.38;;;22.42;;
17844;SDS011;9047;53.486;10.218;2022-09-25T07:54:09;44.55;;;23.13;;
17844;SDS011;9047;53.486;10.218;2022-09-25T07:56:36;43.28;;;22.23;;
17844;SDS011;9047;53.486;10.218;2022-09-25T07:59:03;46.20;;;22.05;;
17844;SDS011;9047;53.486;10.218;2022-09-25T08:01:31;47.10;;;23.13;;
17844;SDS011;9047;53.486;10.218;2022-09-25T08:03:58;49.30;;;22.77;;
17844;SDS011;9047;53.486;10.218;2022-09-25T08:06:26;46.45;;;23.08;;
17844;SDS011;9047;53.486;10.218;2022-09-25T08:08:53;41.50;;;22.10;;
17844;SDS011;9047;53.486;10.218;2022-09-25T08:11:20;42.63;;;22.90;;
17844;SDS011;9047;53.486;10.218;2022-09-25T08:13:47;45.42;;;22.48;;
17844;SDS011;9047;53.486;10.218;2022-09-25T08:16:15;39.28;;;20.58;;
17844;SDS011;9047;53.486;10.218;2022-09-25T08:18:46;37.67;;;19.80;;
17844;SDS011;9047;53.486;10.218;2022-09-25T08:21:14;44.80;;;22.83;;
17844;SDS011;9047;53.486;10.218;2022-09-25T08:23:46;36.40;;;20.27;;
17844;SDS011;9047;53.486;10.218;2022-09-25T08:26:14;39.95;;;20.42;;
17844;SDS011;9047;53.486;10.218;2022-09-25T08:28:42;40.00;;;20.35;;
17844;SDS011;9047;53.486;10.218;2022-09-25T08:31:09;43.03;;;22.02;;
17844;SDS011;9047;53.486;10.218;2022-09-25T08:33:38;38.28;;;20.05;;
17844;SDS011;9047;53.486;10.218;2022-09-25T08:36:09;37.17;;;20.17;;
17844;SDS011;9047;53.486;10.218;2022-09-25T08:38:36;37.63;;;20.27;;
17844;SDS011;9047;53.486;10.218;2022-09-25T08:41:08;48.72;;;22.50;;
17844;SDS011;9047;53.486;10.218;2022-09-25T08:43:41;48.83;;;22.92;;
17844;SDS011;9047;53.486;10.218;2022-09-25T08:46:14;45.15;;;21.85;;
17844;SDS011;9047;53.486;10.218;2022-09-25T08:49:13;46.10;;;22.38;;
17844;SDS011;9047;53.486;10.218;2022-09-25T08:51:45;43.53;;;22.10;;
17844;SDS011;9047;53.486;10.218;2022-09-25T08:54:19;46.30;;;22.42;;
17844;SDS011;9047;53.486;10.218;2022-09-25T08:56:50;38.30;;;20.88;;
17844;SDS011;9047;53.486;10.218;2022-09-25T08:59:21;44.35;;;21.83;;
17844;SDS011;9047;53.486;10.218;2022-09-25T09:01:54;39.88;;;21.73;;
17844;SDS011;9047;53.486;10.218;2022-09-25T09:04:24;35.08;;;19.27;;
17844;SDS011;9047;53.486;10.218;2022-09-25T09:06:57;51.28;;;22.33;;
17844;SDS011;9047;53.486;10.218;2022-09-25T09:09:29;54.83;;;23.30;;
17844;SDS011;9047;53.486;10.218;2022-09-25T09:12:04;36.40;;;19.13;;
17844;SDS011;9047;53.486;10.218;2022-09-25T09:14:37;56.72;;;24.58;;
17844;SDS011;9047;53.486;10.218;2022-09-25T09:17:11;53.03;;;24.23;;
17844;SDS011;9047;53.486;10.218;2022-09-25T09:19:45;45.85;;;24.42;;
17844;SDS011;9047;53.486;10.218;2022-09-25T09:22:15;46.55;;;22.25;;
17844;SDS011;9047;53.486;10.218;2022-09-25T09:24:53;48.08;;;24.17;;
17844;SDS011;9047;53.486;10.218;2022-09-25T09:30:20;38.80;;;22.35;;
17844;SDS011;9047;53.486;10.218;2022-09-25T09:33:07;38.40;;;21.70;;
17844;SDS011;9047;53.486;10.218;2022-09-25T09:35:46;36.40;;;21.40;;
17844;SDS011;9047;53.486;10.218;2022-09-25T09:38:25;42.10;;;22.27;;
17844;SDS011;9047;53.486;10.218;2022-09-25T09:41:03;41.90;;;22.67;;
17844;SDS011;9047;53.486;10.218;2022-09-25T09:44:00;34.08;;;21.02;;
17844;SDS011;9047;53.486;10.218;2022-09-25T09:46:39;39.20;;;21.67;;
17844;SDS011;9047;53.486;10.218;2022-09-25T09:49:17;31.15;;;19.33;;
17844;SDS011;9047;53.486;10.218;2022-09-25T09:51:48;29.55;;;17.88;;
17844;SDS011;9047;53.486;10.218;2022-09-25T09:54:19;27.02;;;15.90;;
17844;SDS011;9047;53.486;10.218;2022-09-25T09:56:50;23.40;;;14.50;;
17844;SDS011;9047;53.486;10.218;2022-09-25T09:59:21;20.85;;;14.02;;
17844;SDS011;9047;53.486;10.218;2022-09-25T10:01:57;18.83;;;12.57;;
17844;SDS011;9047;53.486;10.218;2022-09-25T10:04:29;15.48;;;11.43;;
17844;SDS011;9047;53.486;10.218;2022-09-25T10:07:01;14.63;;;10.95;;
17844;SDS011;9047;53.486;10.218;2022-09-25T10:09:31;13.77;;;9.93;;
17844;SDS011;9047;53.486;10.218;2022-09-25T10:12:03;13.98;;;10.35;;
17844;SDS011;9047;53.486;10.218;2022-09-25T10:14:35;14.90;;;10.50;;
17844;SDS011;9047;53.486;10.218;2022-09-25T10:17:06;17.88;;;12.80;;
17844;SDS011;9047;53.486;10.218;2022-09-25T10:19:40;15.98;;;11.27;;
17844;SDS011;9047;53.486;10.218;2022-09-25T10:22:14;16.67;;;12.00;;
17844;SDS011;9047;53.486;10.218;2022-09-25T10:24:46;16.65;;;11.98;;
17844;SDS011;9047;53.486;10.218;2022-09-25T10:27:27;18.63;;;13.38;;
17844;SDS011;9047;53.486;10.218;2022-09-25T10:30:14;14.95;;;11.70;;
17844;SDS011;9047;53.486;10.218;2022-09-25T10:35:40;18.02;;;12.98;;
17844;SDS011;9047;53.486;10.218;2022-09-25T10:38:16;16.42;;;11.73;;
17844;SDS011;9047;53.486;10.218;2022-09-25T10:41:09;15.38;;;11.55;;
17844;SDS011;9047;53.486;10.218;2022-09-25T10:43:49;18.90;;;13.25;;
17844;SDS011;9047;53.486;10.218;2022-09-25T10:46:29;15.85;;;11.15;;
17844;SDS011;9047;53.486;10.218;2022-09-25T10:49:16;16.75;;;11.07;;
17844;SDS011;9047;53.486;10.218;2022-09-25T10:52:07;14.80;;;10.63;;
17844;SDS011;9047;53.486;10.218;2022-09-25T10:54:37;13.90;;;9.65;;
17844;SDS011;9047;53.486;10.218;2022-09-25T10:57:12;12.80;;;10.23;;
17844;SDS011;9047;53.486;10.218;2022-09-25T10:59:45;13.70;;;10.40;;
17844;SDS011;9047;53.486;10.218;2022-09-25T11:02:19;15.38;;;10.95;;
17844;SDS011;9047;53.486;10.218;2022-09-25T11:04:56;15.98;;;11.23;;
17844;SDS011;9047;53.486;10.218;2022-09-25T11:07:24;16.20;;;11.98;;
17844;SDS011;9047;53.486;10.218;2022-09-25T11:09:52;16.48;;;11.48;;
17844;SDS011;9047;53.486;10.218;2022-09-25T11:12:20;15.15;;;11.25;;
17844;SDS011;9047;53.486;10.218;2022-09-25T11:14:52;14.65;;;11.30;;
17844;SDS011;9047;53.486;10.218;2022-09-25T11:17:32;17.92;;;12.43;;
17844;SDS011;9047;53.486;10.218;2022-09-25T11:20:19;16.17;;;11.27;;
17844;SDS011;9047;53.486;10.218;2022-09-25T11:22:54;15.98;;;10.68;;
17844;SDS011;9047;53.486;10.218;2022-09-25T11:25:30;15.80;;;10.35;;
17844;SDS011;9047;53.486;10.218;2022-09-25T11:28:08;16.38;;;10.88;;
17844;SDS011;9047;53.486;10.218;2022-09-25T11:30:40;16.05;;;10.85;;
17844;SDS011;9047;53.486;10.218;2022-09-25T11:33:21;14.30;;;9.80;;
17844;SDS011;9047;53.486;10.218;2022-09-25T11:35:52;14.95;;;9.50;;
17844;SDS011;9047;53.486;10.218;2022-09-25T11:38:27;17.08;;;10.05;;
17844;SDS011;9047;53.486;10.218;2022-09-25T11:41:22;15.95;;;10.07;;
17844;SDS011;9047;53.486;10.218;2022-09-25T11:44:04;16.17;;;10.85;;
17844;SDS011;9047;53.486;10.218;2022-09-25T11:46:44;17.23;;;10.30;;
17844;SDS011;9047;53.486;10.218;2022-09-25T11:49:20;18.20;;;10.50;;
17844;SDS011;9047;53.486;10.218;2022-09-25T11:51:54;12.18;;;8.98;;
17844;SDS011;9047;53.486;10.218;2022-09-25T11:57:40;14.65;;;10.40;;
17844;SDS011;9047;53.486;10.218;2022-09-25T12:00:21;16.33;;;9.73;;
17844;SDS011;9047;53.486;10.218;2022-09-25T12:03:01;14.13;;;9.40;;
17844;SDS011;9047;53.486;10.218;2022-09-25T12:05:49;15.45;;;9.75;;
17844;SDS011;9047;53.486;10.218;2022-09-25T12:08:27;15.93;;;9.57;;
17844;SDS011;9047;53.486;10.218;2022-09-25T12:11:09;16.23;;;9.60;;
17844;SDS011;9047;53.486;10.218;2022-09-25T12:13:45;14.60;;;8.77;;
17844;SDS011;9047;53.486;10.218;2022-09-25T12:16:20;15.07;;;9.13;;
17844;SDS011;9047;53.486;10.218;2022-09-25T12:19:07;10.85;;;8.20;;
17844;SDS011;9047;53.486;10.218;2022-09-25T12:21:46;14.48;;;9.10;;
17844;SDS011;9047;53.486;10.218;2022-09-25T12:24:21;11.63;;;7.10;;
17844;SDS011;9047;53.486;10.218;2022-09-25T12:26:58;13.25;;;6.88;;
17844;SDS011;9047;53.486;10.218;2022-09-25T12:29:43;13.45;;;6.53;;
17844;SDS011;9047;53.486;10.218;2022-09-25T12:32:26;9.52;;;5.50;;
17844;SDS011;9047;53.486;10.218;2022-09-25T12:35:08;11.35;;;5.28;;
17844;SDS011;9047;53.486;10.218;2022-09-25T12:37:57;9.30;;;4.68;;
17844;SDS011;9047;53.486;10.218;2022-09-25T12:40:35;9.82;;;4.90;;
17844;SDS011;9047;53.486;10.218;2022-09-25T12:43:06;10.25;;;4.40;;
17844;SDS011;9047;53.486;10.218;2022-09-25T12:45:43;9.32;;;5.25;;
17844;SDS011;9047;53.486;10.218;2022-09-25T12:48:16;8.43;;;5.07;;
17844;SDS011;9047;53.486;10.218;2022-09-25T12:50:50;12.73;;;5.22;;
17844;SDS011;9047;53.486;10.218;2022-09-25T12:53:28;8.77;;;4.60;;
17844;SDS011;9047;53.486;10.218;2022-09-25T12:56:02;8.45;;;4.75;;
17844;SDS011;9047;53.486;10.218;2022-09-25T12:58:44;11.40;;;5.10;;
17844;SDS011;9047;53.486;10.218;2022-09-25T13:01:22;12.77;;;5.72;;
17844;SDS011;9047;53.486;10.218;2022-09-25T13:03:56;9.48;;;4.45;;
17844;SDS011;9047;53.486;10.218;2022-09-25T13:06:33;7.53;;;4.15;;
17844;SDS011;9047;53.486;10.218;2022-09-25T13:09:11;8.55;;;3.97;;
17844;SDS011;9047;53.486;10.218;2022-09-25T13:11:45;6.03;;;3.42;;
17844;SDS011;9047;53.486;10.218;2022-09-25T13:14:21;5.43;;;2.95;;
17844;SDS011;9047;53.486;10.218;2022-09-25T13:16:55;8.52;;;3.83;;
17844;SDS011;9047;53.486;10.218;2022-09-25T13:19:23;7.65;;;3.50;;
17844;SDS011;9047;53.486;10.218;2022-09-25T13:21:56;11.23;;;3.50;;
17844;SDS011;9047;53.486;10.218;2022-09-25T13:24:27;6.57;;;3.88;;
17844;SDS011;9047;53.486;10.218;2022-09-25T13:26:58;9.05;;;4.00;;
17844;SDS011;9047;53.486;10.218;2022-09-25T13:29:29;10.52;;;5.13;;
17844;SDS011;9047;53.486;10.218;2022-09-25T13:32:02;8.55;;;4.20;;
17844;SDS011;9047;53.486;10.218;2022-09-25T13:34:32;6.90;;;4.22;;
17844;SDS011;9047;53.486;10.218;2022-09-25T13:37:04;7.82;;;4.35;;
17844;SDS011;9047;53.486;10.218;2022-09-25T13:39:35;9.23;;;4.57;;
17844;SDS011;9047;53.486;10.218;2022-09-25T13:42:22;8.70;;;5.13;;
17844;SDS011;9047;53.486;10.218;2022-09-25T13:44:57;11.10;;;5.30;;
17844;SDS011;9047;53.486;10.218;2022-09-25T13:47:32;9.93;;;5.55;;
17844;SDS011;9047;53.486;10.218;2022-09-25T13:50:21;8.20;;;4.88;;
17844;SDS011;9047;53.486;10.218;2022-09-25T13:53:01;9.00;;;4.78;;
17844;SDS011;9047;53.486;10.218;2022-09-25T14:01:52;10.85;;;6.10;;
17844;SDS011;9047;53.486;10.218;2022-09-25T14:04:22;8.45;;;6.13;;
17844;SDS011;9047;53.486;10.218;2022-09-25T14:07:04;9.20;;;6.15;;
17844;SDS011;9047;53.486;10.218;2022-09-25T14:09:40;7.07;;;4.45;;
17844;SDS011;9047;53.486;10.218;2022-09-25T14:12:17;12.27;;;5.50;;
17844;SDS011;9047;53.486;10.218;2022-09-25T14:14:52;5.80;;;3.30;;
17844;SDS011;9047;53.486;10.218;2022-09-25T14:17:23;6.10;;;3.95;;
17844;SDS011;9047;53.486;10.218;2022-09-25T14:19:56;6.32;;;3.40;;
17844;SDS011;9047;53.486;10.218;2022-09-25T14:22:35;7.85;;;4.25;;
17844;SDS011;9047;53.486;10.218;2022-09-25T14:25:24;8.15;;;4.20;;
17844;SDS011;9047;53.486;10.218;2022-09-25T14:27:58;6.25;;;3.85;;
17844;SDS011;9047;53.486;10.218;2022-09-25T14:30:26;9.30;;;4.70;;
17844;SDS011;9047;53.486;10.218;2022-09-25T14:33:11;8.82;;;3.85;;
17844;SDS011;9047;53.486;10.218;2022-09-25T14:36:08;10.32;;;4.05;;
17844;SDS011;9047;53.486;10.218;2022-09-25T14:38:53;6.85;;;4.07;;
17844;SDS011;9047;53.486;10.218;2022-09-25T14:41:47;8.05;;;3.83;;
17844;SDS011;9047;53.486;10.218;2022-09-25T14:44:37;6.65;;;3.58;;
17844;SDS011;9047;53.486;10.218;2022-09-25T14:47:30;8.80;;;4.07;;
17844;SDS011;9047;53.486;10.218;2022-09-25T14:50:02;7.43;;;3.97;;
17844;SDS011;9047;53.486;10.218;2022-09-25T14:52:33;5.25;;;3.22;;
17844;SDS011;9047;53.486;10.218;2022-09-25T14:55:02;7.65;;;3.20;;
17844;SDS011;9047;53.486;10.218;2022-09-25T14:57:31;4.50;;;2.60;;
17844;SDS011;9047;53.486;10.218;2022-09-25T15:00:03;6.25;;;2.63;;
17844;SDS011;9047;53.486;10.218;2022-09-25T15:02:32;4.85;;;2.17;;
17844;SDS011;9047;53.486;10.218;2022-09-25T15:05:16;7.30;;;2.50;;
17844;SDS011;9047;53.486;10.218;2022-09-25T15:07:44;5.28;;;2.20;;
17844;SDS011;9047;53.486;10.218;2022-09-25T15:10:23;6.50;;;2.20;;
17844;SDS011;9047;53.486;10.218;2022-09-25T15:12:52;5.85;;;2.33;;
17844;SDS011;9047;53.486;10.218;2022-09-25T15:15:21;4.55;;;2.00;;
17844;SDS011;9047;53.486;10.218;2022-09-25T15:17:49;7.85;;;2.10;;